sensor_id;sensor_type;location;lat;lon;timestamp;pressure;altitude;pressure_sealevel;temperature;humidity
21863;BME280;11096;51.338;12.524;2023-11-19T00:01:26;100029.41;;;7.58;100.00
21863;BME280;11096;51.338;12.524;2023-11-19T00:03:51;100027.94;;;7.53;100.00
21863;BME280;11096;51.338;12.524;2023-11-19T00:06:17;100016.22;;;7.62;100.00
21863;BME280;11096;51.338;12.524;2023-11-19T00:08:42;100022.09;;;7.80;100.00
21863;BME280;11096;51.338;12.524;2023-11-19T00:11:09;100018.56;;;7.81;100.00
21863;BME280;11096;51.338;12.524;2023-11-19T00:13:34;100007.81;;;7.87;99.54
21863;BME280;11096;51.338;12.524;2023-11-19T00:16:00;100011.25;;;7.73;97.80
21863;BME280;11096;51.338;12.524;2023-11-19T00:18:25;100006.09;;;7.88;98.14
21863;BME280;11096;51.338;12.524;2023-11-19T00:20:50;100003.50;;;7.88;97.68
21863;BME280;11096;51.338;12.524;2023-11-19T00:23:16;100009.31;;;7.91;97.75
21863;BME280;11096;51.338;12.524;2023-11-19T00:25:41;100000.81;;;7.89;98.09
21863;BME280;11096;51.338;12.524;2023-11-19T00:28:07;99993.16;;;7.88;98.28
21863;BME280;11096;51.338;12.524;2023-11-19T00:30:33;99982.16;;;7.84;98.12
21863;BME280;11096;51.338;12.524;2023-11-19T00:32:58;99971.59;;;7.87;98.64
21863;BME280;11096;51.338;12.524;2023-11-19T00:35:23;99977.34;;;7.78;98.17
21863;BME280;11096;51.338;12.524;2023-11-19T00:37:49;99955.16;;;7.74;97.93
21863;BME280;11096;51.338;12.524;2023-11-19T00:40:16;99953.88;;;7.81;98.83
21863;BME280;11096;51.338;12.524;2023-11-19T00:42:43;99947.41;;;7.74;98.27
21863;BME280;11096;51.338;12.524;2023-11-19T00:45:09;99937.81;;;7.76;98.61
21863;BME280;11096;51.338;12.524;2023-11-19T00:47:35;99927.94;;;7.83;98.52
21863;BME280;11096;51.338;12.524;2023-11-19T00:50:01;99919.03;;;7.72;100.00
21863;BME280;11096;51.338;12.524;2023-11-19T00:52:26;99916.56;;;7.71;100.00
21863;BME280;11096;51.338;12.524;2023-11-19T00:54:52;99904.81;;;7.65;99.05
21863;BME280;11096;51.338;12.524;2023-11-19T00:57:17;99887.56;;;7.80;100.00
21863;BME280;11096;51.338;12.524;2023-11-19T00:59:43;99900.66;;;7.77;100.00
21863;BME280;11096;51.338;12.524;2023-11-19T01:02:08;99887.84;;;7.61;99.68
21863;BME280;11096;51.338;12.524;2023-11-19T01:04:35;99884.78;;;7.69;99.70
21863;BME280;11096;51.338;12.524;2023-11-19T01:07:04;99860.69;;;7.68;100.00
21863;BME280;11096;51.338;12.524;2023-11-19T01:09:30;99863.00;;;7.73;100.00
21863;BME280;11096;51.338;12.524;2023-11-19T01:11:58;99857.63;;;7.76;100.00
21863;BME280;11096;51.338;12.524;2023-11-19T01:14:25;99852.09;;;7.68;100.00
21863;BME280;11096;51.338;12.524;2023-11-19T01:16:50;99857.44;;;7.79;100.00
21863;BME280;11096;51.338;12.524;2023-11-19T01:19:16;99852.44;;;7.76;100.00
21863;BME280;11096;51.338;12.524;2023-11-19T01:21:41;99856.16;;;7.58;100.00
21863;BME280;11096;51.338;12.524;2023-11-19T01:24:07;99843.13;;;7.73;100.00
21863;BME280;11096;51.338;12.524;2023-11-19T01:26:34;99824.28;;;7.71;100.00
21863;BME280;11096;51.338;12.524;2023-11-19T01:29:00;99819.78;;;7.61;100.00
21863;BME280;11096;51.338;12.524;2023-11-19T01:31:26;99811.69;;;7.80;100.00
21863;BME280;11096;51.338;12.524;2023-11-19T01:33:51;99797.06;;;7.66;100.00
21863;BME280;11096;51.338;12.524;2023-11-19T01:36:17;99795.22;;;7.53;100.00
21863;BME280;11096;51.338;12.524;2023-11-19T01:38:42;99786.81;;;7.50;100.00
21863;BME280;11096;51.338;12.524;2023-11-19T01:41:08;99783.84;;;7.56;100.00
21863;BME280;11096;51.338;12.524;2023-11-19T01:43:38;99783.09;;;7.68;100.00
21863;BME280;11096;51.338;12.524;2023-11-19T01:46:07;99775.66;;;7.49;100.00
21863;BME280;11096;51.338;12.524;2023-11-19T01:48:36;99757.50;;;7.64;100.00
21863;BME280;11096;51.338;12.524;2023-11-19T01:51:03;99763.56;;;7.77;100.00
21863;BME280;11096;51.338;12.524;2023-11-19T01:53:29;99754.13;;;7.90;100.00
21863;BME280;11096;51.338;12.524;2023-11-19T01:55:56;99752.34;;;7.64;99.23
21863;BME280;11096;51.338;12.524;2023-11-19T01:58:22;99739.22;;;7.67;99.52
21863;BME280;11096;51.338;12.524;2023-11-19T02:00:48;99742.31;;;7.45;98.45
21863;BME280;11096;51.338;12.524;2023-11-19T02:03:14;99758.47;;;7.48;99.00
21863;BME280;11096;51.338;12.524;2023-11-19T02:05:40;99755.53;;;7.40;97.95
21863;BME280;11096;51.338;12.524;2023-11-19T02:08:05;99739.94;;;7.69;99.17
21863;BME280;11096;51.338;12.524;2023-11-19T02:10:31;99733.59;;;7.60;98.85
21863;BME280;11096;51.338;12.524;2023-11-19T02:12:57;99733.13;;;7.68;99.03
21863;BME280;11096;51.338;12.524;2023-11-19T02:15:23;99734.53;;;7.59;97.89
21863;BME280;11096;51.338;12.524;2023-11-19T02:17:50;99706.25;;;7.70;98.01
21863;BME280;11096;51.338;12.524;2023-11-19T02:20:16;99713.75;;;7.61;98.51
21863;BME280;11096;51.338;12.524;2023-11-19T02:22:41;99712.34;;;7.28;98.78
21863;BME280;11096;51.338;12.524;2023-11-19T02:25:07;99707.34;;;7.39;100.00
21863;BME280;11096;51.338;12.524;2023-11-19T02:27:55;99707.84;;;7.59;100.00
21863;BME280;11096;51.338;12.524;2023-11-19T02:30:22;99698.63;;;7.55;100.00
21863;BME280;11096;51.338;12.524;2023-11-19T02:33:00;99689.69;;;7.46;100.00
21863;BME280;11096;51.338;12.524;2023-11-19T02:35:31;99675.75;;;7.48;100.00
21863;BME280;11096;51.338;12.524;2023-11-19T02:37:57;99661.34;;;7.84;100.00
21863;BME280;11096;51.338;12.524;2023-11-19T02:40:24;99654.81;;;7.66;100.00
21863;BME280;11096;51.338;12.524;2023-11-19T02:42:53;99647.00;;;7.53;100.00
21863;BME280;11096;51.338;12.524;2023-11-19T02:45:19;99730.03;;;8.43;100.00
21863;BME280;11096;51.338;12.524;2023-11-19T02:47:45;99711.09;;;6.78;100.00
21863;BME280;11096;51.338;12.524;2023-11-19T02:50:11;99696.88;;;12.71;100.00
21863;BME280;11096;51.338;12.524;2023-11-19T02:52:44;99626.56;;;10.45;100.00
21863;BME280;11096;51.338;12.524;2023-11-19T02:55:11;99608.84;;;9.21;100.00
21863;BME280;11096;51.338;12.524;2023-11-19T02:57:40;99591.84;;;8.93;100.00
21863;BME280;11096;51.338;12.524;2023-11-19T03:02:43;99576.22;;;10.23;88.47
21863;BME280;11096;51.338;12.524;2023-11-19T03:05:14;99587.47;;;9.31;87.90
21863;BME280;11096;51.338;12.524;2023-11-19T03:07:42;99567.78;;;9.04;88.38
21863;BME280;11096;51.338;12.524;2023-11-19T03:10:11;99557.78;;;8.87;88.89
21863;BME280;11096;51.338;12.524;2023-11-19T03:12:43;99549.84;;;9.01;88.80
21863;BME280;11096;51.338;12.524;2023-11-19T03:15:10;99555.41;;;9.08;88.22
21863;BME280;11096;51.338;12.524;2023-11-19T03:17:38;99553.38;;;9.24;88.25
21863;BME280;11096;51.338;12.524;2023-11-19T03:20:08;99541.75;;;9.41;88.10
21863;BME280;11096;51.338;12.524;2023-11-19T03:22:40;99543.94;;;8.99;88.14
21863;BME280;11096;51.338;12.524;2023-11-19T03:25:07;99550.94;;;8.86;87.80
21863;BME280;11096;51.338;12.524;2023-11-19T03:27:40;99544.47;;;9.15;87.59
21863;BME280;11096;51.338;12.524;2023-11-19T03:30:10;99549.16;;;9.34;88.45
21863;BME280;11096;51.338;12.524;2023-11-19T03:32:36;99537.38;;;9.06;87.24
21863;BME280;11096;51.338;12.524;2023-11-19T03:35:02;99528.59;;;9.20;87.87
21863;BME280;11096;51.338;12.524;2023-11-19T03:37:29;99522.41;;;9.80;86.69
21863;BME280;11096;51.338;12.524;2023-11-19T03:39:56;99538.00;;;10.03;88.53
21863;BME280;11096;51.338;12.524;2023-11-19T03:42:27;99535.47;;;9.79;88.11
21863;BME280;11096;51.338;12.524;2023-11-19T03:44:53;99530.75;;;9.73;86.73
21863;BME280;11096;51.338;12.524;2023-11-19T03:47:19;99531.25;;;9.78;84.84
21863;BME280;11096;51.338;12.524;2023-11-19T03:49:49;99530.19;;;9.92;85.56
21863;BME280;11096;51.338;12.524;2023-11-19T03:52:14;99509.53;;;9.90;87.80
21863;BME280;11096;51.338;12.524;2023-11-19T03:54:40;99496.44;;;13.26;76.19
21863;BME280;11096;51.338;12.524;2023-11-19T03:57:05;99499.53;;;10.30;78.76
21863;BME280;11096;51.338;12.524;2023-11-19T03:59:30;99498.31;;;9.78;83.80
21863;BME280;11096;51.338;12.524;2023-11-19T04:01:56;99498.69;;;9.85;84.35
21863;BME280;11096;51.338;12.524;2023-11-19T04:04:26;99496.56;;;8.97;84.41
21863;BME280;11096;51.338;12.524;2023-11-19T04:06:51;99488.25;;;9.05;89.54
21863;BME280;11096;51.338;12.524;2023-11-19T04:09:16;99496.41;;;8.87;93.32
21863;BME280;11096;51.338;12.524;2023-11-19T04:11:42;99501.84;;;8.95;100.00
21863;BME280;11096;51.338;12.524;2023-11-19T04:14:07;99475.81;;;9.67;95.42
21863;BME280;11096;51.338;12.524;2023-11-19T04:16:33;99481.69;;;9.81;92.36
21863;BME280;11096;51.338;12.524;2023-11-19T04:18:58;99475.34;;;10.07;87.77
21863;BME280;11096;51.338;12.524;2023-11-19T04:21:23;99467.41;;;10.20;85.00
21863;BME280;11096;51.338;12.524;2023-11-19T04:23:49;99455.63;;;10.05;86.82
21863;BME280;11096;51.338;12.524;2023-11-19T04:26:14;99467.75;;;10.38;84.25
21863;BME280;11096;51.338;12.524;2023-11-19T04:28:41;99465.41;;;10.24;83.92
21863;BME280;11096;51.338;12.524;2023-11-19T04:31:06;99452.44;;;10.24;84.22
21863;BME280;11096;51.338;12.524;2023-11-19T04:33:32;99446.59;;;10.54;85.70
21863;BME280;11096;51.338;12.524;2023-11-19T04:35:57;99455.03;;;10.35;85.97
21863;BME280;11096;51.338;12.524;2023-11-19T04:38:22;99505.94;;;9.46;100.00
21863;BME280;11096;51.338;12.524;2023-11-19T04:40:48;99482.97;;;9.53;100.00
21863;BME280;11096;51.338;12.524;2023-11-19T04:43:13;99455.03;;;9.67;100.00
21863;BME280;11096;51.338;12.524;2023-11-19T04:45:38;99447.50;;;9.76;100.00
21863;BME280;11096;51.338;12.524;2023-11-19T04:48:05;99439.22;;;9.93;100.00
21863;BME280;11096;51.338;12.524;2023-11-19T04:50:30;99435.81;;;9.70;97.42
21863;BME280;11096;51.338;12.524;2023-11-19T04:52:56;99415.50;;;9.86;95.11
21863;BME280;11096;51.338;12.524;2023-11-19T04:55:21;99427.69;;;9.97;93.32
21863;BME280;11096;51.338;12.524;2023-11-19T04:57:47;99443.72;;;9.80;100.00
21863;BME280;11096;51.338;12.524;2023-11-19T05:00:13;99413.53;;;9.90;97.41
21863;BME280;11096;51.338;12.524;2023-11-19T05:02:39;99405.94;;;10.85;90.47
21863;BME280;11096;51.338;12.524;2023-11-19T05:05:04;99408.78;;;10.93;87.22
21863;BME280;11096;51.338;12.524;2023-11-19T05:07:30;99401.41;;;10.99;85.28
21863;BME280;11096;51.338;12.524;2023-11-19T05:09:56;99400.38;;;10.90;84.00
21863;BME280;11096;51.338;12.524;2023-11-19T05:12:21;99388.09;;;10.92;83.54
21863;BME280;11096;51.338;12.524;2023-11-19T05:14:48;99380.19;;;10.93;83.33
21863;BME280;11096;51.338;12.524;2023-11-19T05:17:17;99378.41;;;10.94;83.02
21863;BME280;11096;51.338;12.524;2023-11-19T05:19:43;99386.38;;;10.81;83.00
21863;BME280;11096;51.338;12.524;2023-11-19T05:22:09;99380.47;;;11.21;83.72
21863;BME280;11096;51.338;12.524;2023-11-19T05:24:34;99382.09;;;10.16;83.55
21863;BME280;11096;51.338;12.524;2023-11-19T05:27:01;99380.06;;;10.42;87.72
21863;BME280;11096;51.338;12.524;2023-11-19T05:29:27;99370.31;;;10.12;87.61
21863;BME280;11096;51.338;12.524;2023-11-19T05:31:52;99352.03;;;10.02;87.98
21863;BME280;11096;51.338;12.524;2023-11-19T05:34:20;99362.50;;;10.34;89.60
21863;BME280;11096;51.338;12.524;2023-11-19T05:36:46;99371.22;;;10.22;89.57
21863;BME280;11096;51.338;12.524;2023-11-19T05:39:11;99369.91;;;10.27;91.36
21863;BME280;11096;51.338;12.524;2023-11-19T05:41:37;99375.94;;;10.28;91.40
21863;BME280;11096;51.338;12.524;2023-11-19T05:44:02;99380.19;;;10.18;91.17
21863;BME280;11096;51.338;12.524;2023-11-19T05:46:28;99364.81;;;10.26;91.39
21863;BME280;11096;51.338;12.524;2023-11-19T05:48:53;99359.13;;;10.43;91.00
21863;BME280;11096;51.338;12.524;2023-11-19T05:51:18;99371.91;;;10.35;89.86
21863;BME280;11096;51.338;12.524;2023-11-19T05:53:44;99376.75;;;10.40;90.49
21863;BME280;11096;51.338;12.524;2023-11-19T05:56:15;99367.88;;;10.42;90.58
21863;BME280;11096;51.338;12.524;2023-11-19T05:58:41;99356.34;;;10.35;90.04
21863;BME280;11096;51.338;12.524;2023-11-19T06:01:06;99340.00;;;10.44;90.44
21863;BME280;11096;51.338;12.524;2023-11-19T06:03:32;99331.53;;;10.42;90.00
21863;BME280;11096;51.338;12.524;2023-11-19T06:05:58;99328.81;;;10.44;89.71
21863;BME280;11096;51.338;12.524;2023-11-19T06:08:23;99337.53;;;10.43;90.67
21863;BME280;11096;51.338;12.524;2023-11-19T06:10:50;99330.69;;;10.42;91.02
21863;BME280;11096;51.338;12.524;2023-11-19T06:13:16;99344.31;;;10.34;91.03
21863;BME280;11096;51.338;12.524;2023-11-19T06:15:42;99349.59;;;10.65;92.19
21863;BME280;11096;51.338;12.524;2023-11-19T06:18:08;99347.06;;;10.74;93.89
21863;BME280;11096;51.338;12.524;2023-11-19T06:20:34;99352.72;;;10.59;94.85
21863;BME280;11096;51.338;12.524;2023-11-19T06:23:00;99344.28;;;13.35;77.99
21863;BME280;11096;51.338;12.524;2023-11-19T06:25:26;99338.16;;;13.07;77.55
21863;BME280;11096;51.338;12.524;2023-11-19T06:27:52;99332.50;;;13.86;75.75
21863;BME280;11096;51.338;12.524;2023-11-19T06:30:18;99326.84;;;14.45;73.41
21863;BME280;11096;51.338;12.524;2023-11-19T06:32:43;99322.13;;;26.36;58.75
21863;BME280;11096;51.338;12.524;2023-11-19T06:35:09;99335.00;;;16.15;63.76
21863;BME280;11096;51.338;12.524;2023-11-19T06:37:35;99332.59;;;15.79;65.43
21863;BME280;11096;51.338;12.524;2023-11-19T06:40:01;99330.47;;;14.88;65.63
21863;BME280;11096;51.338;12.524;2023-11-19T06:42:26;99337.16;;;15.42;67.92
21863;BME280;11096;51.338;12.524;2023-11-19T06:44:52;99338.88;;;15.25;67.62
21863;BME280;11096;51.338;12.524;2023-11-19T06:47:18;99330.47;;;14.88;67.32
21863;BME280;11096;51.338;12.524;2023-11-19T06:49:44;99330.72;;;15.29;68.38
21863;BME280;11096;51.338;12.524;2023-11-19T06:52:09;99326.75;;;15.16;68.82
21863;BME280;11096;51.338;12.524;2023-11-19T06:54:35;99316.75;;;14.94;68.61
21863;BME280;11096;51.338;12.524;2023-11-19T06:57:00;99312.88;;;14.00;68.80
21863;BME280;11096;51.338;12.524;2023-11-19T06:59:26;99314.28;;;13.94;69.95
21863;BME280;11096;51.338;12.524;2023-11-19T07:01:51;99317.44;;;14.16;70.83
21863;BME280;11096;51.338;12.524;2023-11-19T07:04:16;99313.16;;;13.79;70.73
21863;BME280;11096;51.338;12.524;2023-11-19T07:06:42;99313.19;;;14.33;71.37
21863;BME280;11096;51.338;12.524;2023-11-19T07:09:08;99315.59;;;14.26;70.55
21863;BME280;11096;51.338;12.524;2023-11-19T07:11:40;99328.44;;;14.55;70.29
21863;BME280;11096;51.338;12.524;2023-11-19T07:14:09;99326.47;;;13.86;69.22
21863;BME280;11096;51.338;12.524;2023-11-19T07:16:35;99326.16;;;14.07;70.56
21863;BME280;11096;51.338;12.524;2023-11-19T07:19:03;99322.38;;;14.01;70.07
21863;BME280;11096;51.338;12.524;2023-11-19T07:21:28;99317.38;;;14.26;70.85
21863;BME280;11096;51.338;12.524;2023-11-19T07:23:54;99322.34;;;14.37;71.20
21863;BME280;11096;51.338;12.524;2023-11-19T07:26:20;99331.03;;;14.37;70.61
21863;BME280;11096;51.338;12.524;2023-11-19T07:28:47;99336.56;;;14.16;69.91
21863;BME280;11096;51.338;12.524;2023-11-19T07:31:13;99351.00;;;14.56;70.48
21863;BME280;11096;51.338;12.524;2023-11-19T07:33:39;99346.41;;;14.41;70.26
21863;BME280;11096;51.338;12.524;2023-11-19T07:36:07;99336.34;;;14.46;70.70
21863;BME280;11096;51.338;12.524;2023-11-19T07:38:33;99318.03;;;14.10;69.88
21863;BME280;11096;51.338;12.524;2023-11-19T07:40:58;99330.75;;;14.23;70.05
21863;BME280;11096;51.338;12.524;2023-11-19T07:43:24;99337.53;;;14.33;70.41
21863;BME280;11096;51.338;12.524;2023-11-19T07:45:49;99346.50;;;14.31;71.05
21863;BME280;11096;51.338;12.524;2023-11-19T07:48:14;99350.06;;;14.12;70.84
21863;BME280;11096;51.338;12.524;2023-11-19T07:50:40;99351.03;;;14.11;70.21
21863;BME280;11096;51.338;12.524;2023-11-19T07:53:07;99354.03;;;14.52;70.54
21863;BME280;11096;51.338;12.524;2023-11-19T07:55:33;99361.22;;;14.50;70.72
21863;BME280;11096;51.338;12.524;2023-11-19T07:57:58;99372.69;;;14.21;71.36
21863;BME280;11096;51.338;12.524;2023-11-19T08:00:23;99365.41;;;14.43;71.03
21863;BME280;11096;51.338;12.524;2023-11-19T08:02:49;99363.03;;;13.86;70.84
21863;BME280;11096;51.338;12.524;2023-11-19T08:05:14;99375.44;;;14.65;71.24
21863;BME280;11096;51.338;12.524;2023-11-19T08:07:39;99381.16;;;14.87;70.58
21863;BME280;11096;51.338;12.524;2023-11-19T08:10:05;99386.94;;;15.16;71.00
21863;BME280;11096;51.338;12.524;2023-11-19T08:12:35;99389.34;;;15.36;70.76
21863;BME280;11096;51.338;12.524;2023-11-19T08:15:04;99388.31;;;15.29;69.71
21863;BME280;11096;51.338;12.524;2023-11-19T08:17:30;99383.19;;;14.57;69.01
21863;BME280;11096;51.338;12.524;2023-11-19T08:19:55;99389.84;;;15.13;69.97
21863;BME280;11096;51.338;12.524;2023-11-19T08:22:21;99393.84;;;14.81;69.42
21863;BME280;11096;51.338;12.524;2023-11-19T08:24:47;99391.94;;;14.66;69.76
21863;BME280;11096;51.338;12.524;2023-11-19T08:27:13;99394.81;;;15.24;71.15
21863;BME280;11096;51.338;12.524;2023-11-19T08:29:38;99394.44;;;15.11;70.98
21863;BME280;11096;51.338;12.524;2023-11-19T08:32:04;99392.66;;;15.46;71.48
21863;BME280;11096;51.338;12.524;2023-11-19T08:34:30;99402.19;;;15.55;70.83
21863;BME280;11096;51.338;12.524;2023-11-19T08:36:55;99404.66;;;15.83;71.76
21863;BME280;11096;51.338;12.524;2023-11-19T08:39:21;99396.69;;;16.01;70.54
21863;BME280;11096;51.338;12.524;2023-11-19T08:41:47;99413.50;;;14.86;73.77
21863;BME280;11096;51.338;12.524;2023-11-19T08:44:13;99415.75;;;14.80;75.31
21863;BME280;11096;51.338;12.524;2023-11-19T08:46:39;99402.88;;;14.33;74.62
21863;BME280;11096;51.338;12.524;2023-11-19T08:49:05;99415.53;;;14.74;74.51
21863;BME280;11096;51.338;12.524;2023-11-19T08:51:31;99417.13;;;15.11;75.54
21863;BME280;11096;51.338;12.524;2023-11-19T08:53:56;99422.47;;;16.22;76.71
21863;BME280;11096;51.338;12.524;2023-11-19T08:56:22;99421.78;;;16.79;76.09
21863;BME280;11096;51.338;12.524;2023-11-19T08:58:48;99423.25;;;16.89;74.98
21863;BME280;11096;51.338;12.524;2023-11-19T09:01:13;99421.03;;;16.36;74.47
21863;BME280;11096;51.338;12.524;2023-11-19T09:03:39;99419.69;;;15.73;73.27
21863;BME280;11096;51.338;12.524;2023-11-19T09:06:04;99437.22;;;15.54;75.12
21863;BME280;11096;51.338;12.524;2023-11-19T09:08:30;99434.13;;;16.27;76.38
21863;BME280;11096;51.338;12.524;2023-11-19T09:10:55;99438.03;;;15.73;74.07
21863;BME280;11096;51.338;12.524;2023-11-19T09:13:20;99434.16;;;15.67;75.60
21863;BME280;11096;51.338;12.524;2023-11-19T09:15:46;99429.75;;;15.67;76.60
21863;BME280;11096;51.338;12.524;2023-11-19T09:18:11;99421.66;;;15.53;76.14
21863;BME280;11096;51.338;12.524;2023-11-19T09:20:37;99430.97;;;15.73;75.68
21863;BME280;11096;51.338;12.524;2023-11-19T09:23:04;99429.19;;;15.74;75.06
21863;BME280;11096;51.338;12.524;2023-11-19T09:25:30;99431.63;;;15.49;73.75
21863;BME280;11096;51.338;12.524;2023-11-19T09:27:56;99427.53;;;15.73;74.04
21863;BME280;11096;51.338;12.524;2023-11-19T09:30:21;99434.63;;;16.31;75.15
21863;BME280;11096;51.338;12.524;2023-11-19T09:32:47;99436.28;;;16.48;74.11
21863;BME280;11096;51.338;12.524;2023-11-19T09:35:13;99440.47;;;15.74;76.94
21863;BME280;11096;51.338;12.524;2023-11-19T09:37:40;99444.38;;;15.44;77.23
21863;BME280;11096;51.338;12.524;2023-11-19T09:40:06;99442.63;;;15.79;79.41
21863;BME280;11096;51.338;12.524;2023-11-19T09:42:43;99438.09;;;15.63;78.47
21863;BME280;11096;51.338;12.524;2023-11-19T09:45:14;99436.81;;;15.41;78.70
21863;BME280;11096;51.338;12.524;2023-11-19T09:47:43;99441.81;;;15.26;76.92
21863;BME280;11096;51.338;12.524;2023-11-19T09:50:10;99438.47;;;15.42;79.10
21863;BME280;11096;51.338;12.524;2023-11-19T09:52:39;99442.59;;;15.53;78.86
21863;BME280;11096;51.338;12.524;2023-11-19T09:55:05;99443.16;;;15.64;78.52
21863;BME280;11096;51.338;12.524;2023-11-19T09:57:31;99433.16;;;15.60;78.58
21863;BME280;11096;51.338;12.524;2023-11-19T09:59:58;99438.59;;;15.66;79.33
21863;BME280;11096;51.338;12.524;2023-11-19T10:02:33;99438.72;;;15.83;81.93
21863;BME280;11096;51.338;12.524;2023-11-19T10:04:59;99422.69;;;15.86;81.11
21863;BME280;11096;51.338;12.524;2023-11-19T10:07:28;99413.75;;;15.44;79.33
21863;BME280;11096;51.338;12.524;2023-11-19T10:09:53;99416.63;;;15.59;81.54
21863;BME280;11096;51.338;12.524;2023-11-19T10:12:19;99423.81;;;15.57;81.81
21863;BME280;11096;51.338;12.524;2023-11-19T10:14:45;99416.91;;;15.48;79.90
21863;BME280;11096;51.338;12.524;2023-11-19T10:17:11;99420.50;;;15.03;81.71
21863;BME280;11096;51.338;12.524;2023-11-19T10:19:36;99410.78;;;15.39;84.61
21863;BME280;11096;51.338;12.524;2023-11-19T10:22:05;99410.50;;;15.16;82.76
21863;BME280;11096;51.338;12.524;2023-11-19T10:24:31;99413.34;;;14.69;81.22
21863;BME280;11096;51.338;12.524;2023-11-19T10:26:59;99416.19;;;15.12;83.84
21863;BME280;11096;51.338;12.524;2023-11-19T10:29:25;99416.22;;;15.46;82.98
21863;BME280;11096;51.338;12.524;2023-11-19T10:31:59;99418.91;;;15.62;81.27
21863;BME280;11096;51.338;12.524;2023-11-19T10:34:27;99402.00;;;15.49;80.74
21863;BME280;11096;51.338;12.524;2023-11-19T10:36:53;99384.59;;;15.13;80.12
21863;BME280;11096;51.338;12.524;2023-11-19T10:39:18;99367.66;;;15.25;78.98
21863;BME280;11096;51.338;12.524;2023-11-19T10:41:46;99373.69;;;15.52;80.95
21863;BME280;11096;51.338;12.524;2023-11-19T10:44:11;99375.19;;;15.55;80.80
21863;BME280;11096;51.338;12.524;2023-11-19T10:46:38;99373.59;;;16.04;81.42
21863;BME280;11096;51.338;12.524;2023-11-19T10:49:05;99366.38;;;15.90;79.30
21863;BME280;11096;51.338;12.524;2023-11-19T10:51:32;99371.16;;;16.03;79.24
21863;BME280;11096;51.338;12.524;2023-11-19T10:54:02;99378.94;;;16.53;80.37
21863;BME280;11096;51.338;12.524;2023-11-19T10:56:31;99375.56;;;18.98;82.34
21863;BME280;11096;51.338;12.524;2023-11-19T10:58:59;99362.59;;;19.26;77.95
21863;BME280;11096;51.338;12.524;2023-11-19T11:01:27;99351.78;;;19.36;76.08
21863;BME280;11096;51.338;12.524;2023-11-19T11:03:59;99353.91;;;19.70;76.80
21863;BME280;11096;51.338;12.524;2023-11-19T11:06:26;99356.16;;;19.43;72.67
21863;BME280;11096;51.338;12.524;2023-11-19T11:08:53;99339.81;;;19.18;72.57
21863;BME280;11096;51.338;12.524;2023-11-19T11:11:19;99349.97;;;20.17;73.19
21863;BME280;11096;51.338;12.524;2023-11-19T11:13:49;99343.44;;;20.77;72.42
21863;BME280;11096;51.338;12.524;2023-11-19T11:16:18;99341.66;;;19.99;67.88
21863;BME280;11096;51.338;12.524;2023-11-19T11:18:45;99352.59;;;19.06;71.56
21863;BME280;11096;51.338;12.524;2023-11-19T11:21:17;99352.38;;;18.32;74.29
21863;BME280;11096;51.338;12.524;2023-11-19T11:37:33;99365.00;;;18.37;76.67
21863;BME280;11096;51.338;12.524;2023-11-19T11:40:01;99352.06;;;17.65;73.89
21863;BME280;11096;51.338;12.524;2023-11-19T11:42:36;99357.91;;;18.60;73.19
21863;BME280;11096;51.338;12.524;2023-11-19T11:45:09;99359.69;;;19.50;72.42
21863;BME280;11096;51.338;12.524;2023-11-19T11:50:08;99338.44;;;19.07;67.56
21863;BME280;11096;51.338;12.524;2023-11-19T11:52:34;99346.50;;;19.80;63.05
21863;BME280;11096;51.338;12.524;2023-11-19T11:55:36;99339.69;;;19.71;60.03
21863;BME280;11096;51.338;12.524;2023-11-19T11:58:02;99337.88;;;18.97;59.59
21863;BME280;11096;51.338;12.524;2023-11-19T12:02:55;99348.66;;;18.64;62.92
21863;BME280;11096;51.338;12.524;2023-11-19T12:05:21;99348.28;;;17.98;63.52
21863;BME280;11096;51.338;12.524;2023-11-19T12:08:00;99334.81;;;17.14;64.08
21863;BME280;11096;51.338;12.524;2023-11-19T12:10:31;99332.50;;;17.28;64.11
21863;BME280;11096;51.338;12.524;2023-11-19T12:13:05;99326.00;;;16.91;64.53
21863;BME280;11096;51.338;12.524;2023-11-19T12:15:32;99328.28;;;17.02;64.37
21863;BME280;11096;51.338;12.524;2023-11-19T12:17:58;99316.91;;;17.66;63.81
21863;BME280;11096;51.338;12.524;2023-11-19T12:20:25;99325.16;;;17.94;63.73
21863;BME280;11096;51.338;12.524;2023-11-19T12:22:51;99323.88;;;18.59;61.13
21863;BME280;11096;51.338;12.524;2023-11-19T12:25:18;99308.63;;;19.22;59.67
21863;BME280;11096;51.338;12.524;2023-11-19T12:27:46;99313.84;;;19.81;59.34
21863;BME280;11096;51.338;12.524;2023-11-19T12:30:12;99304.19;;;19.52;58.23
21863;BME280;11096;51.338;12.524;2023-11-19T12:32:42;99302.16;;;19.69;57.43
21863;BME280;11096;51.338;12.524;2023-11-19T12:35:09;99304.28;;;19.29;58.22
21863;BME280;11096;51.338;12.524;2023-11-19T12:37:41;99305.63;;;18.80;58.58
21863;BME280;11096;51.338;12.524;2023-11-19T12:40:17;99309.84;;;18.29;57.60
21863;BME280;11096;51.338;12.524;2023-11-19T12:42:50;99302.38;;;17.47;58.00
21863;BME280;11096;51.338;12.524;2023-11-19T12:45:16;99307.69;;;17.70;58.48
21863;BME280;11096;51.338;12.524;2023-11-19T12:47:45;99313.59;;;18.03;58.88
21863;BME280;11096;51.338;12.524;2023-11-19T12:50:13;99299.94;;;17.85;58.55
21863;BME280;11096;51.338;12.524;2023-11-19T12:52:39;99307.22;;;17.66;58.01
21863;BME280;11096;51.338;12.524;2023-11-19T12:55:23;99318.31;;;17.76;58.20
21863;BME280;11096;51.338;12.524;2023-11-19T12:57:49;99305.31;;;18.37;57.24
21863;BME280;11096;51.338;12.524;2023-11-19T13:00:19;99308.22;;;18.42;56.38
21863;BME280;11096;51.338;12.524;2023-11-19T13:02:47;99302.84;;;18.36;55.80
21863;BME280;11096;51.338;12.524;2023-11-19T13:05:32;99295.97;;;18.12;55.75
21863;BME280;11096;51.338;12.524;2023-11-19T13:10:34;99304.19;;;17.86;56.57
21863;BME280;11096;51.338;12.524;2023-11-19T13:13:15;99307.91;;;17.60;57.29
21863;BME280;11096;51.338;12.524;2023-11-19T13:15:40;99303.50;;;17.05;57.72